Sherwood, North Carolina
Current Conditions -  °F | °C
As of 9:15 AM on Wednesday 26 Nov 2014 (Local Time) from KTNB Reporting Station
Light Snow Light Snow  
Wind Chill: 33°   Ceiling: 500
Heat Index: 33°   Visibility: 0.75mi
Dew Point: 33°   Wind: 0mph
Humidity: 100%   Direction: NA
Pressure: 29.97"   Gusts: NA
Location:  36.2779°N, 81.7843°W
Report Text: KTNB 261415Z AUTO 00000KT 3/4SM -SN BKN005 BKN065 OVC080 01/01 A2997 RMK AO2 P0003 T00050005
Loading
Personal Weather Stations






























Interactive Weather Map New forecast layout! Learn more

10-Day Weather Forecast

Advertisements
Track Severe Weather on mobile